sensor_id;sensor_type;location;lat;lon;timestamp;temperature;humidity
21622;DHT22;10973;46.706;12.340;2022-10-16T00:01:42;7.80;99.90
21622;DHT22;10973;46.706;12.340;2022-10-16T00:04:10;7.70;99.90
21622;DHT22;10973;46.706;12.340;2022-10-16T00:06:37;7.70;99.90
21622;DHT22;10973;46.706;12.340;2022-10-16T00:09:06;7.70;99.90
21622;DHT22;10973;46.706;12.340;2022-10-16T00:11:35;7.70;99.90
21622;DHT22;10973;46.706;12.340;2022-10-16T00:14:08;7.80;99.90
21622;DHT22;10973;46.706;12.340;2022-10-16T00:16:40;7.70;99.90
21622;DHT22;10973;46.706;12.340;2022-10-16T00:19:10;7.70;99.90
21622;DHT22;10973;46.706;12.340;2022-10-16T00:21:38;7.70;99.90
21622;DHT22;10973;46.706;12.340;2022-10-16T00:24:07;7.70;99.90
21622;DHT22;10973;46.706;12.340;2022-10-16T00:26:36;7.80;99.90
21622;DHT22;10973;46.706;12.340;2022-10-16T00:29:05;7.90;99.90
21622;DHT22;10973;46.706;12.340;2022-10-16T00:31:33;7.90;99.90
21622;DHT22;10973;46.706;12.340;2022-10-16T00:34:01;7.90;99.90
21622;DHT22;10973;46.706;12.340;2022-10-16T00:36:29;7.80;99.90
21622;DHT22;10973;46.706;12.340;2022-10-16T00:38:57;7.80;99.90
21622;DHT22;10973;46.706;12.340;2022-10-16T00:41:30;7.90;99.90
21622;DHT22;10973;46.706;12.340;2022-10-16T00:43:59;7.90;99.90
21622;DHT22;10973;46.706;12.340;2022-10-16T00:49:11;8.00;99.90
21622;DHT22;10973;46.706;12.340;2022-10-16T00:51:46;8.00;99.90
21622;DHT22;10973;46.706;12.340;2022-10-16T00:54:28;8.00;99.90
21622;DHT22;10973;46.706;12.340;2022-10-16T00:57:00;8.10;99.90
21622;DHT22;10973;46.706;12.340;2022-10-16T00:59:33;8.10;99.90
21622;DHT22;10973;46.706;12.340;2022-10-16T01:02:03;8.20;99.90
21622;DHT22;10973;46.706;12.340;2022-10-16T01:04:36;8.20;99.90
21622;DHT22;10973;46.706;12.340;2022-10-16T01:07:25;8.20;99.90
21622;DHT22;10973;46.706;12.340;2022-10-16T01:15:37;8.30;99.90
21622;DHT22;10973;46.706;12.340;2022-10-16T01:21:09;8.40;99.90
21622;DHT22;10973;46.706;12.340;2022-10-16T01:35:25;8.50;99.90
21622;DHT22;10973;46.706;12.340;2022-10-16T01:38:17;8.50;99.90
21622;DHT22;10973;46.706;12.340;2022-10-16T01:40:54;8.50;99.90
21622;DHT22;10973;46.706;12.340;2022-10-16T01:43:46;8.60;99.90
21622;DHT22;10973;46.706;12.340;2022-10-16T01:46:40;8.60;99.90
21622;DHT22;10973;46.706;12.340;2022-10-16T01:49:12;8.60;99.90
21622;DHT22;10973;46.706;12.340;2022-10-16T01:51:42;8.60;99.90
21622;DHT22;10973;46.706;12.340;2022-10-16T01:54:14;8.70;99.90
21622;DHT22;10973;46.706;12.340;2022-10-16T01:56:46;8.70;99.90
21622;DHT22;10973;46.706;12.340;2022-10-16T01:59:21;8.60;99.90
21622;DHT22;10973;46.706;12.340;2022-10-16T02:01:52;8.60;99.90
21622;DHT22;10973;46.706;12.340;2022-10-16T02:04:26;8.70;99.90
21622;DHT22;10973;46.706;12.340;2022-10-16T02:06:58;8.70;99.90
21622;DHT22;10973;46.706;12.340;2022-10-16T02:09:26;8.70;99.90
21622;DHT22;10973;46.706;12.340;2022-10-16T02:11:55;8.70;99.90
21622;DHT22;10973;46.706;12.340;2022-10-16T02:14:26;8.80;99.90
21622;DHT22;10973;46.706;12.340;2022-10-16T02:16:53;8.80;99.90
21622;DHT22;10973;46.706;12.340;2022-10-16T02:19:22;8.80;99.90
21622;DHT22;10973;46.706;12.340;2022-10-16T02:21:58;8.90;99.90
21622;DHT22;10973;46.706;12.340;2022-10-16T02:24:45;8.90;99.90
21622;DHT22;10973;46.706;12.340;2022-10-16T02:27:43;8.90;99.90
21622;DHT22;10973;46.706;12.340;2022-10-16T02:30:33;8.90;99.90
21622;DHT22;10973;46.706;12.340;2022-10-16T02:33:09;8.90;99.90
21622;DHT22;10973;46.706;12.340;2022-10-16T02:35:38;8.90;99.90
21622;DHT22;10973;46.706;12.340;2022-10-16T02:38:08;8.90;99.90
21622;DHT22;10973;46.706;12.340;2022-10-16T02:40:37;9.00;99.90
21622;DHT22;10973;46.706;12.340;2022-10-16T02:43:06;8.90;99.90
21622;DHT22;10973;46.706;12.340;2022-10-16T02:45:33;8.90;99.90
21622;DHT22;10973;46.706;12.340;2022-10-16T02:48:00;8.90;99.90
21622;DHT22;10973;46.706;12.340;2022-10-16T02:50:28;8.90;99.90
21622;DHT22;10973;46.706;12.340;2022-10-16T02:52:55;8.90;99.90
21622;DHT22;10973;46.706;12.340;2022-10-16T02:55:22;8.80;99.90
21622;DHT22;10973;46.706;12.340;2022-10-16T02:57:50;8.80;99.90
21622;DHT22;10973;46.706;12.340;2022-10-16T03:00:17;8.80;99.90
21622;DHT22;10973;46.706;12.340;2022-10-16T03:02:45;8.80;99.90
21622;DHT22;10973;46.706;12.340;2022-10-16T03:05:13;8.70;99.90
21622;DHT22;10973;46.706;12.340;2022-10-16T03:07:41;8.70;99.90
21622;DHT22;10973;46.706;12.340;2022-10-16T03:10:08;8.70;99.90
21622;DHT22;10973;46.706;12.340;2022-10-16T03:12:36;8.60;99.90
21622;DHT22;10973;46.706;12.340;2022-10-16T03:15:04;8.70;99.90
21622;DHT22;10973;46.706;12.340;2022-10-16T03:17:32;8.70;99.90
21622;DHT22;10973;46.706;12.340;2022-10-16T03:19:59;8.70;99.90
21622;DHT22;10973;46.706;12.340;2022-10-16T03:22:26;8.70;99.90
21622;DHT22;10973;46.706;12.340;2022-10-16T03:24:54;8.70;99.90
21622;DHT22;10973;46.706;12.340;2022-10-16T03:27:21;8.70;99.90
21622;DHT22;10973;46.706;12.340;2022-10-16T03:29:49;8.70;99.90
21622;DHT22;10973;46.706;12.340;2022-10-16T03:32:16;8.70;99.90
21622;DHT22;10973;46.706;12.340;2022-10-16T03:34:43;8.70;99.90
21622;DHT22;10973;46.706;12.340;2022-10-16T03:37:10;8.70;99.90
21622;DHT22;10973;46.706;12.340;2022-10-16T03:39:38;8.80;99.90
21622;DHT22;10973;46.706;12.340;2022-10-16T03:42:05;8.80;99.90
21622;DHT22;10973;46.706;12.340;2022-10-16T03:44:32;8.80;99.90
21622;DHT22;10973;46.706;12.340;2022-10-16T03:46:59;8.70;99.90
21622;DHT22;10973;46.706;12.340;2022-10-16T03:49:26;8.70;99.90
21622;DHT22;10973;46.706;12.340;2022-10-16T03:51:54;8.70;99.90
21622;DHT22;10973;46.706;12.340;2022-10-16T03:54:21;8.70;99.90
21622;DHT22;10973;46.706;12.340;2022-10-16T03:56:48;8.70;99.90
21622;DHT22;10973;46.706;12.340;2022-10-16T03:59:15;8.80;99.90
21622;DHT22;10973;46.706;12.340;2022-10-16T04:01:43;8.80;99.90
21622;DHT22;10973;46.706;12.340;2022-10-16T04:04:10;8.80;99.90
21622;DHT22;10973;46.706;12.340;2022-10-16T04:06:37;8.80;99.90
21622;DHT22;10973;46.706;12.340;2022-10-16T04:09:04;8.80;99.90
21622;DHT22;10973;46.706;12.340;2022-10-16T04:11:31;8.70;99.90
21622;DHT22;10973;46.706;12.340;2022-10-16T04:13:59;8.70;99.90
21622;DHT22;10973;46.706;12.340;2022-10-16T04:16:26;8.70;99.90
21622;DHT22;10973;46.706;12.340;2022-10-16T04:18:53;8.70;99.90
21622;DHT22;10973;46.706;12.340;2022-10-16T04:21:20;8.60;99.90
21622;DHT22;10973;46.706;12.340;2022-10-16T04:23:48;8.50;99.90
21622;DHT22;10973;46.706;12.340;2022-10-16T04:26:15;8.40;99.90
21622;DHT22;10973;46.706;12.340;2022-10-16T04:28:43;8.40;99.90
21622;DHT22;10973;46.706;12.340;2022-10-16T04:31:10;8.40;99.90
21622;DHT22;10973;46.706;12.340;2022-10-16T04:33:38;8.30;99.90
21622;DHT22;10973;46.706;12.340;2022-10-16T04:36:05;8.20;99.90
21622;DHT22;10973;46.706;12.340;2022-10-16T04:38:32;8.20;99.90
21622;DHT22;10973;46.706;12.340;2022-10-16T04:41:00;8.20;99.90
21622;DHT22;10973;46.706;12.340;2022-10-16T04:43:27;8.20;99.90
21622;DHT22;10973;46.706;12.340;2022-10-16T04:45:54;8.10;99.90
21622;DHT22;10973;46.706;12.340;2022-10-16T04:48:22;7.90;99.90
21622;DHT22;10973;46.706;12.340;2022-10-16T04:50:49;8.00;99.90
21622;DHT22;10973;46.706;12.340;2022-10-16T04:53:21;7.90;99.90
21622;DHT22;10973;46.706;12.340;2022-10-16T04:55:49;7.80;99.90
21622;DHT22;10973;46.706;12.340;2022-10-16T04:58:17;7.80;99.90
21622;DHT22;10973;46.706;12.340;2022-10-16T05:00:45;7.80;99.90
21622;DHT22;10973;46.706;12.340;2022-10-16T05:03:12;7.80;99.90
21622;DHT22;10973;46.706;12.340;2022-10-16T05:05:44;7.80;99.90
21622;DHT22;10973;46.706;12.340;2022-10-16T05:08:13;7.90;99.90
21622;DHT22;10973;46.706;12.340;2022-10-16T05:10:43;7.90;99.90
21622;DHT22;10973;46.706;12.340;2022-10-16T05:13:11;7.80;99.90
21622;DHT22;10973;46.706;12.340;2022-10-16T05:15:38;7.90;99.90
21622;DHT22;10973;46.706;12.340;2022-10-16T05:18:06;7.90;99.90
21622;DHT22;10973;46.706;12.340;2022-10-16T05:20:33;7.90;99.90
21622;DHT22;10973;46.706;12.340;2022-10-16T05:23:01;7.90;99.90
21622;DHT22;10973;46.706;12.340;2022-10-16T05:25:28;7.90;99.90
21622;DHT22;10973;46.706;12.340;2022-10-16T05:27:55;7.90;99.90
21622;DHT22;10973;46.706;12.340;2022-10-16T05:30:22;7.80;99.90
21622;DHT22;10973;46.706;12.340;2022-10-16T05:32:50;7.70;99.90
21622;DHT22;10973;46.706;12.340;2022-10-16T05:35:19;7.70;99.90
21622;DHT22;10973;46.706;12.340;2022-10-16T05:37:47;7.70;99.90
21622;DHT22;10973;46.706;12.340;2022-10-16T05:40:15;7.60;99.90
21622;DHT22;10973;46.706;12.340;2022-10-16T05:42:42;7.50;99.90
21622;DHT22;10973;46.706;12.340;2022-10-16T05:45:10;7.50;99.90
21622;DHT22;10973;46.706;12.340;2022-10-16T05:47:38;7.50;99.90
21622;DHT22;10973;46.706;12.340;2022-10-16T05:50:06;7.60;99.90
21622;DHT22;10973;46.706;12.340;2022-10-16T05:52:34;7.40;99.90
21622;DHT22;10973;46.706;12.340;2022-10-16T05:55:01;7.40;99.90
21622;DHT22;10973;46.706;12.340;2022-10-16T05:57:28;7.40;99.90
21622;DHT22;10973;46.706;12.340;2022-10-16T05:59:56;7.30;99.90
21622;DHT22;10973;46.706;12.340;2022-10-16T06:02:23;7.30;99.90
21622;DHT22;10973;46.706;12.340;2022-10-16T06:04:53;7.30;99.90
21622;DHT22;10973;46.706;12.340;2022-10-16T06:07:21;7.30;99.90
21622;DHT22;10973;46.706;12.340;2022-10-16T06:09:51;7.30;99.90
21622;DHT22;10973;46.706;12.340;2022-10-16T06:12:19;7.30;99.90
21622;DHT22;10973;46.706;12.340;2022-10-16T06:14:47;7.30;99.90
21622;DHT22;10973;46.706;12.340;2022-10-16T06:17:14;7.20;99.90
21622;DHT22;10973;46.706;12.340;2022-10-16T06:19:42;7.30;99.90
21622;DHT22;10973;46.706;12.340;2022-10-16T06:22:09;7.30;99.90
21622;DHT22;10973;46.706;12.340;2022-10-16T06:24:36;7.40;99.90
21622;DHT22;10973;46.706;12.340;2022-10-16T06:27:04;7.40;99.90
21622;DHT22;10973;46.706;12.340;2022-10-16T06:29:31;7.40;99.90
21622;DHT22;10973;46.706;12.340;2022-10-16T06:31:59;7.40;99.90
21622;DHT22;10973;46.706;12.340;2022-10-16T06:34:26;7.40;99.90
21622;DHT22;10973;46.706;12.340;2022-10-16T06:36:53;7.40;99.90
21622;DHT22;10973;46.706;12.340;2022-10-16T06:39:20;7.40;99.90
21622;DHT22;10973;46.706;12.340;2022-10-16T06:41:48;7.40;99.90
21622;DHT22;10973;46.706;12.340;2022-10-16T06:44:15;7.50;99.90
21622;DHT22;10973;46.706;12.340;2022-10-16T06:46:42;7.50;99.90
21622;DHT22;10973;46.706;12.340;2022-10-16T06:49:09;7.50;99.90
21622;DHT22;10973;46.706;12.340;2022-10-16T06:51:36;7.70;99.90
21622;DHT22;10973;46.706;12.340;2022-10-16T06:54:09;7.60;99.90
21622;DHT22;10973;46.706;12.340;2022-10-16T06:56:36;7.60;99.90
21622;DHT22;10973;46.706;12.340;2022-10-16T06:59:03;7.70;99.90
21622;DHT22;10973;46.706;12.340;2022-10-16T07:01:32;7.80;99.90
21622;DHT22;10973;46.706;12.340;2022-10-16T07:04:00;7.90;99.90
21622;DHT22;10973;46.706;12.340;2022-10-16T07:06:32;8.00;99.90
21622;DHT22;10973;46.706;12.340;2022-10-16T07:09:04;8.00;99.90
21622;DHT22;10973;46.706;12.340;2022-10-16T07:11:34;8.20;99.90
21622;DHT22;10973;46.706;12.340;2022-10-16T07:14:04;8.30;99.90
21622;DHT22;10973;46.706;12.340;2022-10-16T07:16:32;8.30;99.90
21622;DHT22;10973;46.706;12.340;2022-10-16T07:19:02;8.40;99.90
21622;DHT22;10973;46.706;12.340;2022-10-16T07:21:31;8.50;99.90
21622;DHT22;10973;46.706;12.340;2022-10-16T07:24:00;8.60;99.90
21622;DHT22;10973;46.706;12.340;2022-10-16T07:26:30;8.70;99.90
21622;DHT22;10973;46.706;12.340;2022-10-16T07:28:59;8.80;99.90
21622;DHT22;10973;46.706;12.340;2022-10-16T07:31:27;8.90;99.90
21622;DHT22;10973;46.706;12.340;2022-10-16T07:33:55;9.00;99.90
21622;DHT22;10973;46.706;12.340;2022-10-16T07:36:25;9.10;99.90
21622;DHT22;10973;46.706;12.340;2022-10-16T07:38:52;9.20;99.90
21622;DHT22;10973;46.706;12.340;2022-10-16T07:41:26;9.20;99.90
21622;DHT22;10973;46.706;12.340;2022-10-16T07:43:54;9.30;99.90
21622;DHT22;10973;46.706;12.340;2022-10-16T07:46:23;9.40;99.90
21622;DHT22;10973;46.706;12.340;2022-10-16T07:48:51;9.50;99.90
21622;DHT22;10973;46.706;12.340;2022-10-16T07:51:21;9.50;99.90
21622;DHT22;10973;46.706;12.340;2022-10-16T07:53:50;9.60;99.90
21622;DHT22;10973;46.706;12.340;2022-10-16T07:56:19;9.60;99.90
21622;DHT22;10973;46.706;12.340;2022-10-16T07:58:47;9.70;99.90
21622;DHT22;10973;46.706;12.340;2022-10-16T08:01:16;9.80;99.90
21622;DHT22;10973;46.706;12.340;2022-10-16T08:03:49;9.90;99.90
21622;DHT22;10973;46.706;12.340;2022-10-16T08:06:19;10.00;99.90
21622;DHT22;10973;46.706;12.340;2022-10-16T08:08:56;10.00;99.90
21622;DHT22;10973;46.706;12.340;2022-10-16T08:11:23;10.00;99.90
21622;DHT22;10973;46.706;12.340;2022-10-16T08:13:50;10.10;99.90
21622;DHT22;10973;46.706;12.340;2022-10-16T08:16:17;10.20;99.90
21622;DHT22;10973;46.706;12.340;2022-10-16T08:18:45;10.20;99.90
21622;DHT22;10973;46.706;12.340;2022-10-16T08:21:15;10.30;99.90
21622;DHT22;10973;46.706;12.340;2022-10-16T08:23:47;10.30;99.90
21622;DHT22;10973;46.706;12.340;2022-10-16T08:26:24;10.40;99.90
21622;DHT22;10973;46.706;12.340;2022-10-16T08:28:53;10.40;99.90
21622;DHT22;10973;46.706;12.340;2022-10-16T08:31:22;10.60;99.90
21622;DHT22;10973;46.706;12.340;2022-10-16T08:33:49;10.60;99.90
21622;DHT22;10973;46.706;12.340;2022-10-16T08:36:16;10.60;99.90
21622;DHT22;10973;46.706;12.340;2022-10-16T08:38:46;10.70;99.90
21622;DHT22;10973;46.706;12.340;2022-10-16T08:41:30;10.80;99.90
21622;DHT22;10973;46.706;12.340;2022-10-16T08:44:31;10.80;99.90
21622;DHT22;10973;46.706;12.340;2022-10-16T08:52:39;11.10;99.90
21622;DHT22;10973;46.706;12.340;2022-10-16T08:58:19;11.20;99.90
21622;DHT22;10973;46.706;12.340;2022-10-16T09:00:56;11.20;99.90
21622;DHT22;10973;46.706;12.340;2022-10-16T09:15:22;11.60;99.90
21622;DHT22;10973;46.706;12.340;2022-10-16T09:20:51;11.60;99.90
21622;DHT22;10973;46.706;12.340;2022-10-16T09:23:28;11.70;99.90
21622;DHT22;10973;46.706;12.340;2022-10-16T09:25:58;11.80;99.90
21622;DHT22;10973;46.706;12.340;2022-10-16T09:28:26;11.80;99.90
21622;DHT22;10973;46.706;12.340;2022-10-16T09:30:54;11.80;99.90
21622;DHT22;10973;46.706;12.340;2022-10-16T09:33:25;11.90;99.90
21622;DHT22;10973;46.706;12.340;2022-10-16T09:36:03;12.00;99.90
21622;DHT22;10973;46.706;12.340;2022-10-16T09:38:34;12.00;99.90
21622;DHT22;10973;46.706;12.340;2022-10-16T09:41:20;12.10;99.90
21622;DHT22;10973;46.706;12.340;2022-10-16T09:43:57;12.10;99.90
21622;DHT22;10973;46.706;12.340;2022-10-16T09:46:35;12.10;99.90
21622;DHT22;10973;46.706;12.340;2022-10-16T09:49:16;12.10;99.90
21622;DHT22;10973;46.706;12.340;2022-10-16T09:51:45;12.20;99.90
21622;DHT22;10973;46.706;12.340;2022-10-16T09:54:18;12.30;99.90
21622;DHT22;10973;46.706;12.340;2022-10-16T09:56:47;12.30;99.90
21622;DHT22;10973;46.706;12.340;2022-10-16T09:59:17;12.40;99.90
21622;DHT22;10973;46.706;12.340;2022-10-16T10:01:53;12.40;99.90
21622;DHT22;10973;46.706;12.340;2022-10-16T10:04:22;12.50;99.90
21622;DHT22;10973;46.706;12.340;2022-10-16T10:06:55;12.60;99.90
21622;DHT22;10973;46.706;12.340;2022-10-16T10:09:32;12.60;99.90
21622;DHT22;10973;46.706;12.340;2022-10-16T10:12:24;12.70;99.90
21622;DHT22;10973;46.706;12.340;2022-10-16T10:15:02;12.70;99.90
21622;DHT22;10973;46.706;12.340;2022-10-16T10:17:48;12.80;99.90
21622;DHT22;10973;46.706;12.340;2022-10-16T10:20:28;12.80;99.90
21622;DHT22;10973;46.706;12.340;2022-10-16T10:22:57;12.90;99.90
21622;DHT22;10973;46.706;12.340;2022-10-16T10:34:11;13.20;99.90
21622;DHT22;10973;46.706;12.340;2022-10-16T10:56:15;14.00;99.90
21622;DHT22;10973;46.706;12.340;2022-10-16T10:58:56;14.00;99.90
21622;DHT22;10973;46.706;12.340;2022-10-16T11:07:33;16.70;99.90
21622;DHT22;10973;46.706;12.340;2022-10-16T11:10:22;18.30;99.90
21622;DHT22;10973;46.706;12.340;2022-10-16T11:12:58;19.50;99.90
21622;DHT22;10973;46.706;12.340;2022-10-16T11:15:43;20.40;99.90
21622;DHT22;10973;46.706;12.340;2022-10-16T11:21:39;22.00;99.90
21622;DHT22;10973;46.706;12.340;2022-10-16T11:27:18;23.10;97.80
21622;DHT22;10973;46.706;12.340;2022-10-16T11:29:55;23.60;96.60
21622;DHT22;10973;46.706;12.340;2022-10-16T11:35:17;24.00;94.10
21622;DHT22;10973;46.706;12.340;2022-10-16T11:37:51;23.90;94.40
21622;DHT22;10973;46.706;12.340;2022-10-16T11:40:32;24.10;93.70
21622;DHT22;10973;46.706;12.340;2022-10-16T11:43:15;24.30;93.70
21622;DHT22;10973;46.706;12.340;2022-10-16T11:45:55;24.00;94.00
21622;DHT22;10973;46.706;12.340;2022-10-16T11:48:33;24.10;94.10
21622;DHT22;10973;46.706;12.340;2022-10-16T11:51:33;23.80;94.20
21622;DHT22;10973;46.706;12.340;2022-10-16T11:57:07;23.80;93.90
21622;DHT22;10973;46.706;12.340;2022-10-16T11:59:58;23.80;93.60
21622;DHT22;10973;46.706;12.340;2022-10-16T12:08:15;23.70;93.80
21622;DHT22;10973;46.706;12.340;2022-10-16T12:10:45;23.60;93.10
21622;DHT22;10973;46.706;12.340;2022-10-16T12:18:43;23.40;92.50
21622;DHT22;10973;46.706;12.340;2022-10-16T12:21:16;23.50;91.70
21622;DHT22;10973;46.706;12.340;2022-10-16T12:23:52;23.60;91.40
21622;DHT22;10973;46.706;12.340;2022-10-16T12:26:29;23.90;90.80
21622;DHT22;10973;46.706;12.340;2022-10-16T12:29:13;23.60;91.20
21622;DHT22;10973;46.706;12.340;2022-10-16T12:31:55;23.80;91.30
21622;DHT22;10973;46.706;12.340;2022-10-16T12:34:41;23.60;92.20
21622;DHT22;10973;46.706;12.340;2022-10-16T12:37:19;23.90;90.40
21622;DHT22;10973;46.706;12.340;2022-10-16T12:39:50;24.10;90.70
21622;DHT22;10973;46.706;12.340;2022-10-16T12:44:56;24.20;90.10
21622;DHT22;10973;46.706;12.340;2022-10-16T12:47:24;23.80;89.30
21622;DHT22;10973;46.706;12.340;2022-10-16T12:50:33;23.90;88.10
21622;DHT22;10973;46.706;12.340;2022-10-16T12:53:17;23.60;89.10
21622;DHT22;10973;46.706;12.340;2022-10-16T12:56:27;23.40;87.40
21622;DHT22;10973;46.706;12.340;2022-10-16T12:59:57;23.20;89.30
21622;DHT22;10973;46.706;12.340;2022-10-16T13:06:08;22.90;90.00
21622;DHT22;10973;46.706;12.340;2022-10-16T13:08:57;23.00;90.70
21622;DHT22;10973;46.706;12.340;2022-10-16T13:17:26;22.60;90.70
21622;DHT22;10973;46.706;12.340;2022-10-16T13:29:01;22.40;90.90
21622;DHT22;10973;46.706;12.340;2022-10-16T13:31:30;22.50;90.40
21622;DHT22;10973;46.706;12.340;2022-10-16T13:34:00;22.60;88.50
21622;DHT22;10973;46.706;12.340;2022-10-16T13:36:43;22.50;86.70
21622;DHT22;10973;46.706;12.340;2022-10-16T13:39:28;22.60;90.20
21622;DHT22;10973;46.706;12.340;2022-10-16T13:42:17;22.50;89.40
21622;DHT22;10973;46.706;12.340;2022-10-16T13:44:52;22.50;88.90
21622;DHT22;10973;46.706;12.340;2022-10-16T13:47:26;22.40;87.70
21622;DHT22;10973;46.706;12.340;2022-10-16T13:50:03;22.60;88.50
21622;DHT22;10973;46.706;12.340;2022-10-16T13:52:33;22.90;88.90
21622;DHT22;10973;46.706;12.340;2022-10-16T13:55:00;22.90;88.50
21622;DHT22;10973;46.706;12.340;2022-10-16T13:57:28;23.10;89.30
21622;DHT22;10973;46.706;12.340;2022-10-16T13:59:55;23.00;88.00
21622;DHT22;10973;46.706;12.340;2022-10-16T14:02:27;23.00;88.80
21622;DHT22;10973;46.706;12.340;2022-10-16T14:05:08;23.00;87.60
21622;DHT22;10973;46.706;12.340;2022-10-16T14:07:37;22.70;87.40
21622;DHT22;10973;46.706;12.340;2022-10-16T14:10:07;22.90;86.20
21622;DHT22;10973;46.706;12.340;2022-10-16T14:12:56;22.60;86.60
21622;DHT22;10973;46.706;12.340;2022-10-16T14:15:26;22.40;87.50
21622;DHT22;10973;46.706;12.340;2022-10-16T14:17:55;22.40;86.50
21622;DHT22;10973;46.706;12.340;2022-10-16T14:20:26;22.60;86.80
21622;DHT22;10973;46.706;12.340;2022-10-16T14:23:02;22.60;87.50
21622;DHT22;10973;46.706;12.340;2022-10-16T14:25:32;22.40;86.50
21622;DHT22;10973;46.706;12.340;2022-10-16T14:28:17;22.40;87.60
21622;DHT22;10973;46.706;12.340;2022-10-16T14:30:57;22.00;87.00
21622;DHT22;10973;46.706;12.340;2022-10-16T14:39:34;20.00;90.30
21622;DHT22;10973;46.706;12.340;2022-10-16T14:41:49;19.40;90.80
21622;DHT22;10973;46.706;12.340;2022-10-16T14:44:18;18.90;91.90
21622;DHT22;10973;46.706;12.340;2022-10-16T14:46:49;18.40;92.50
21622;DHT22;10973;46.706;12.340;2022-10-16T14:49:19;18.00;92.90
21622;DHT22;10973;46.706;12.340;2022-10-16T14:51:48;17.90;93.30
21622;DHT22;10973;46.706;12.340;2022-10-16T14:54:17;17.90;93.10
21622;DHT22;10973;46.706;12.340;2022-10-16T14:56:54;17.70;93.30
21622;DHT22;10973;46.706;12.340;2022-10-16T14:59:36;17.60;93.50
21622;DHT22;10973;46.706;12.340;2022-10-16T15:04:45;17.60;94.00
21622;DHT22;10973;46.706;12.340;2022-10-16T15:07:12;17.60;94.10
21622;DHT22;10973;46.706;12.340;2022-10-16T15:09:39;17.50;94.10
21622;DHT22;10973;46.706;12.340;2022-10-16T15:12:12;17.50;95.10
21622;DHT22;10973;46.706;12.340;2022-10-16T15:14:39;17.40;94.80
21622;DHT22;10973;46.706;12.340;2022-10-16T15:17:09;17.40;94.80
21622;DHT22;10973;46.706;12.340;2022-10-16T15:19:38;17.30;95.20
21622;DHT22;10973;46.706;12.340;2022-10-16T15:22:05;17.20;95.60
21622;DHT22;10973;46.706;12.340;2022-10-16T15:24:32;17.10;95.90
21622;DHT22;10973;46.706;12.340;2022-10-16T15:26:59;17.00;96.00
21622;DHT22;10973;46.706;12.340;2022-10-16T15:29:26;16.90;96.40
21622;DHT22;10973;46.706;12.340;2022-10-16T15:31:54;16.90;96.90
21622;DHT22;10973;46.706;12.340;2022-10-16T15:34:21;16.80;97.30
21622;DHT22;10973;46.706;12.340;2022-10-16T15:36:48;16.70;97.50
21622;DHT22;10973;46.706;12.340;2022-10-16T15:39:17;16.60;97.60
21622;DHT22;10973;46.706;12.340;2022-10-16T15:41:47;16.50;97.80
21622;DHT22;10973;46.706;12.340;2022-10-16T15:44:15;16.50;97.90
21622;DHT22;10973;46.706;12.340;2022-10-16T15:46:42;16.50;98.30
21622;DHT22;10973;46.706;12.340;2022-10-16T15:49:10;16.40;98.30
21622;DHT22;10973;46.706;12.340;2022-10-16T15:51:39;16.30;98.40
21622;DHT22;10973;46.706;12.340;2022-10-16T15:54:08;16.20;98.80
21622;DHT22;10973;46.706;12.340;2022-10-16T15:56:36;16.20;99.00
21622;DHT22;10973;46.706;12.340;2022-10-16T15:59:04;16.10;99.20
21622;DHT22;10973;46.706;12.340;2022-10-16T16:01:33;16.00;99.40
21622;DHT22;10973;46.706;12.340;2022-10-16T16:04:01;15.90;99.60
21622;DHT22;10973;46.706;12.340;2022-10-16T16:06:46;15.90;99.90
21622;DHT22;10973;46.706;12.340;2022-10-16T16:09:14;15.80;99.90
21622;DHT22;10973;46.706;12.340;2022-10-16T16:11:42;15.70;99.90
21622;DHT22;10973;46.706;12.340;2022-10-16T16:14:12;15.70;99.90
21622;DHT22;10973;46.706;12.340;2022-10-16T16:16:41;15.70;99.90
21622;DHT22;10973;46.706;12.340;2022-10-16T16:19:09;15.70;99.90
21622;DHT22;10973;46.706;12.340;2022-10-16T16:21:38;15.50;99.90
21622;DHT22;10973;46.706;12.340;2022-10-16T16:24:06;15.40;99.90
21622;DHT22;10973;46.706;12.340;2022-10-16T16:26:33;15.20;99.90
21622;DHT22;10973;46.706;12.340;2022-10-16T16:29:03;15.00;99.90
21622;DHT22;10973;46.706;12.340;2022-10-16T16:31:32;15.00;99.90
21622;DHT22;10973;46.706;12.340;2022-10-16T16:33:59;14.90;99.90
21622;DHT22;10973;46.706;12.340;2022-10-16T16:36:27;14.70;99.90
21622;DHT22;10973;46.706;12.340;2022-10-16T16:38:54;14.60;99.90
21622;DHT22;10973;46.706;12.340;2022-10-16T16:41:25;14.60;99.90
21622;DHT22;10973;46.706;12.340;2022-10-16T16:43:54;14.50;99.90
21622;DHT22;10973;46.706;12.340;2022-10-16T16:46:22;14.50;99.90
21622;DHT22;10973;46.706;12.340;2022-10-16T16:48:50;14.50;99.90
21622;DHT22;10973;46.706;12.340;2022-10-16T16:51:18;14.50;99.90
21622;DHT22;10973;46.706;12.340;2022-10-16T16:53:47;14.40;99.90
21622;DHT22;10973;46.706;12.340;2022-10-16T16:56:17;14.20;99.90
21622;DHT22;10973;46.706;12.340;2022-10-16T16:58:46;14.00;99.90
21622;DHT22;10973;46.706;12.340;2022-10-16T17:01:15;14.10;99.90
21622;DHT22;10973;46.706;12.340;2022-10-16T17:03:49;13.80;99.90
21622;DHT22;10973;46.706;12.340;2022-10-16T17:06:25;13.60;99.90
21622;DHT22;10973;46.706;12.340;2022-10-16T17:08:54;13.40;99.90
21622;DHT22;10973;46.706;12.340;2022-10-16T17:11:24;13.30;99.90
21622;DHT22;10973;46.706;12.340;2022-10-16T17:13:54;13.20;99.90
21622;DHT22;10973;46.706;12.340;2022-10-16T17:16:32;13.00;99.90
21622;DHT22;10973;46.706;12.340;2022-10-16T17:19:04;13.10;99.90
21622;DHT22;10973;46.706;12.340;2022-10-16T17:21:34;12.90;99.90
21622;DHT22;10973;46.706;12.340;2022-10-16T17:24:02;12.70;99.90
21622;DHT22;10973;46.706;12.340;2022-10-16T17:26:30;12.60;99.90
21622;DHT22;10973;46.706;12.340;2022-10-16T17:28:59;12.60;99.90
21622;DHT22;10973;46.706;12.340;2022-10-16T17:31:35;12.60;99.90
21622;DHT22;10973;46.706;12.340;2022-10-16T17:34:05;12.40;99.90
21622;DHT22;10973;46.706;12.340;2022-10-16T17:36:37;12.40;99.90
21622;DHT22;10973;46.706;12.340;2022-10-16T17:39:07;12.30;99.90
21622;DHT22;10973;46.706;12.340;2022-10-16T17:41:35;12.30;99.90
21622;DHT22;10973;46.706;12.340;2022-10-16T17:44:03;12.20;99.90
21622;DHT22;10973;46.706;12.340;2022-10-16T17:46:32;12.10;99.90
21622;DHT22;10973;46.706;12.340;2022-10-16T17:49:08;12.10;99.90
21622;DHT22;10973;46.706;12.340;2022-10-16T17:51:36;11.90;99.90
21622;DHT22;10973;46.706;12.340;2022-10-16T17:54:04;11.90;99.90
21622;DHT22;10973;46.706;12.340;2022-10-16T17:56:32;11.80;99.90
21622;DHT22;10973;46.706;12.340;2022-10-16T17:59:00;11.80;99.90
21622;DHT22;10973;46.706;12.340;2022-10-16T18:01:36;11.60;99.90
21622;DHT22;10973;46.706;12.340;2022-10-16T18:04:08;11.60;99.90